sensor_id;sensor_type;location;lat;lon;timestamp;temperature;humidity
47618;DHT22;33336;36.728;-4.414;2023-09-07T00:04:46;29.70;99.90
47618;DHT22;33336;36.728;-4.414;2023-09-07T00:09:49;29.60;99.90
47618;DHT22;33336;36.728;-4.414;2023-09-07T00:14:53;29.70;99.90
47618;DHT22;33336;36.728;-4.414;2023-09-07T00:19:56;29.30;99.90
47618;DHT22;33336;36.728;-4.414;2023-09-07T00:24:59;29.30;99.90
47618;DHT22;33336;36.728;-4.414;2023-09-07T00:30:04;29.50;99.90
47618;DHT22;33336;36.728;-4.414;2023-09-07T00:35:10;29.60;99.90
47618;DHT22;33336;36.728;-4.414;2023-09-07T00:40:13;29.30;99.90
47618;DHT22;33336;36.728;-4.414;2023-09-07T00:45:17;29.20;99.90
47618;DHT22;33336;36.728;-4.414;2023-09-07T00:50:20;29.40;99.90
47618;DHT22;33336;36.728;-4.414;2023-09-07T00:55:23;29.10;99.90
47618;DHT22;33336;36.728;-4.414;2023-09-07T01:00:28;29.00;99.90
47618;DHT22;33336;36.728;-4.414;2023-09-07T01:05:34;29.10;99.90
47618;DHT22;33336;36.728;-4.414;2023-09-07T01:10:37;29.10;99.90
47618;DHT22;33336;36.728;-4.414;2023-09-07T01:15:43;28.90;99.90
47618;DHT22;33336;36.728;-4.414;2023-09-07T01:20:46;29.20;99.90
47618;DHT22;33336;36.728;-4.414;2023-09-07T01:25:52;29.10;99.90
47618;DHT22;33336;36.728;-4.414;2023-09-07T01:30:56;29.30;99.90
47618;DHT22;33336;36.728;-4.414;2023-09-07T01:36:00;29.40;99.90
47618;DHT22;33336;36.728;-4.414;2023-09-07T01:41:04;29.30;99.90
47618;DHT22;33336;36.728;-4.414;2023-09-07T01:46:07;29.40;99.90
47618;DHT22;33336;36.728;-4.414;2023-09-07T01:51:10;29.20;99.90
47618;DHT22;33336;36.728;-4.414;2023-09-07T01:56:14;29.00;99.90
47618;DHT22;33336;36.728;-4.414;2023-09-07T02:01:21;29.10;99.90
47618;DHT22;33336;36.728;-4.414;2023-09-07T02:06:24;28.70;99.90
47618;DHT22;33336;36.728;-4.414;2023-09-07T02:11:29;29.10;99.90
47618;DHT22;33336;36.728;-4.414;2023-09-07T02:16:31;29.30;99.90
47618;DHT22;33336;36.728;-4.414;2023-09-07T02:21:34;29.30;99.90
47618;DHT22;33336;36.728;-4.414;2023-09-07T02:26:38;29.30;99.90
47618;DHT22;33336;36.728;-4.414;2023-09-07T02:31:47;28.90;99.90
47618;DHT22;33336;36.728;-4.414;2023-09-07T02:36:50;28.80;99.90
47618;DHT22;33336;36.728;-4.414;2023-09-07T02:41:54;28.60;99.90
47618;DHT22;33336;36.728;-4.414;2023-09-07T02:46:56;28.70;99.90
47618;DHT22;33336;36.728;-4.414;2023-09-07T02:51:59;29.10;99.90
47618;DHT22;33336;36.728;-4.414;2023-09-07T02:57:03;29.30;99.90
47618;DHT22;33336;36.728;-4.414;2023-09-07T03:02:06;29.20;99.90
47618;DHT22;33336;36.728;-4.414;2023-09-07T03:07:10;29.10;99.90
47618;DHT22;33336;36.728;-4.414;2023-09-07T03:12:15;29.00;99.90
47618;DHT22;33336;36.728;-4.414;2023-09-07T03:17:19;28.60;99.90
47618;DHT22;33336;36.728;-4.414;2023-09-07T03:22:23;29.00;99.90
47618;DHT22;33336;36.728;-4.414;2023-09-07T03:27:26;28.10;99.90
47618;DHT22;33336;36.728;-4.414;2023-09-07T03:32:29;28.20;99.90
47618;DHT22;33336;36.728;-4.414;2023-09-07T03:37:33;28.60;99.90
47618;DHT22;33336;36.728;-4.414;2023-09-07T03:42:38;28.40;99.90
47618;DHT22;33336;36.728;-4.414;2023-09-07T03:47:41;28.60;99.90
47618;DHT22;33336;36.728;-4.414;2023-09-07T03:52:43;28.40;99.90
47618;DHT22;33336;36.728;-4.414;2023-09-07T03:57:47;28.10;99.90
47618;DHT22;33336;36.728;-4.414;2023-09-07T04:02:50;28.20;99.90
47618;DHT22;33336;36.728;-4.414;2023-09-07T04:07:53;28.50;99.90
47618;DHT22;33336;36.728;-4.414;2023-09-07T04:12:58;28.50;99.90
47618;DHT22;33336;36.728;-4.414;2023-09-07T04:18:00;28.50;99.90
47618;DHT22;33336;36.728;-4.414;2023-09-07T04:23:03;28.70;99.90
47618;DHT22;33336;36.728;-4.414;2023-09-07T04:28:07;28.70;99.90
47618;DHT22;33336;36.728;-4.414;2023-09-07T04:33:11;28.80;99.90
47618;DHT22;33336;36.728;-4.414;2023-09-07T04:38:14;28.50;99.90
47618;DHT22;33336;36.728;-4.414;2023-09-07T04:43:18;28.60;99.90
47618;DHT22;33336;36.728;-4.414;2023-09-07T04:48:20;28.00;99.90
47618;DHT22;33336;36.728;-4.414;2023-09-07T04:53:23;28.00;99.90
47618;DHT22;33336;36.728;-4.414;2023-09-07T04:58:27;28.30;99.90
47618;DHT22;33336;36.728;-4.414;2023-09-07T05:03:31;28.00;99.90
47618;DHT22;33336;36.728;-4.414;2023-09-07T05:08:34;28.10;99.90
47618;DHT22;33336;36.728;-4.414;2023-09-07T05:13:40;28.30;99.90
47618;DHT22;33336;36.728;-4.414;2023-09-07T05:18:42;28.40;99.90
47618;DHT22;33336;36.728;-4.414;2023-09-07T05:23:46;28.50;99.90
47618;DHT22;33336;36.728;-4.414;2023-09-07T05:28:50;28.60;99.90
47618;DHT22;33336;36.728;-4.414;2023-09-07T05:33:53;28.40;99.90
47618;DHT22;33336;36.728;-4.414;2023-09-07T05:38:56;28.70;99.90
47618;DHT22;33336;36.728;-4.414;2023-09-07T05:44:00;28.70;99.90
47618;DHT22;33336;36.728;-4.414;2023-09-07T05:49:03;28.70;99.90
47618;DHT22;33336;36.728;-4.414;2023-09-07T05:54:06;28.80;99.90
47618;DHT22;33336;36.728;-4.414;2023-09-07T05:59:10;27.90;99.90
47618;DHT22;33336;36.728;-4.414;2023-09-07T06:04:13;27.90;99.90
47618;DHT22;33336;36.728;-4.414;2023-09-07T06:09:16;28.20;99.90
47618;DHT22;33336;36.728;-4.414;2023-09-07T06:14:20;28.10;99.90
47618;DHT22;33336;36.728;-4.414;2023-09-07T06:19:22;28.50;99.90
47618;DHT22;33336;36.728;-4.414;2023-09-07T06:24:25;28.40;99.90
47618;DHT22;33336;36.728;-4.414;2023-09-07T06:29:29;28.60;99.90
47618;DHT22;33336;36.728;-4.414;2023-09-07T06:34:32;28.10;99.90
47618;DHT22;33336;36.728;-4.414;2023-09-07T06:39:35;28.20;99.90
47618;DHT22;33336;36.728;-4.414;2023-09-07T06:44:39;28.20;99.90
47618;DHT22;33336;36.728;-4.414;2023-09-07T06:49:41;28.40;99.90
47618;DHT22;33336;36.728;-4.414;2023-09-07T06:54:44;28.50;99.90
47618;DHT22;33336;36.728;-4.414;2023-09-07T06:59:48;28.40;99.90
47618;DHT22;33336;36.728;-4.414;2023-09-07T07:04:51;28.20;99.90
47618;DHT22;33336;36.728;-4.414;2023-09-07T07:09:54;28.50;99.90
47618;DHT22;33336;36.728;-4.414;2023-09-07T07:14:57;28.70;99.90
47618;DHT22;33336;36.728;-4.414;2023-09-07T07:20:00;28.60;99.90
47618;DHT22;33336;36.728;-4.414;2023-09-07T07:25:02;28.90;99.90
47618;DHT22;33336;36.728;-4.414;2023-09-07T07:30:08;28.90;99.90
47618;DHT22;33336;36.728;-4.414;2023-09-07T07:35:10;28.90;99.90
47618;DHT22;33336;36.728;-4.414;2023-09-07T07:40:13;29.00;99.90
47618;DHT22;33336;36.728;-4.414;2023-09-07T07:45:17;28.80;99.90
47618;DHT22;33336;36.728;-4.414;2023-09-07T07:50:21;29.00;99.90
47618;DHT22;33336;36.728;-4.414;2023-09-07T07:55:24;28.80;99.90
47618;DHT22;33336;36.728;-4.414;2023-09-07T08:00:28;29.00;99.90
47618;DHT22;33336;36.728;-4.414;2023-09-07T08:05:32;29.00;99.90
47618;DHT22;33336;36.728;-4.414;2023-09-07T08:10:35;28.90;99.90
47618;DHT22;33336;36.728;-4.414;2023-09-07T08:15:39;28.70;99.90
47618;DHT22;33336;36.728;-4.414;2023-09-07T08:20:42;28.10;99.90
47618;DHT22;33336;36.728;-4.414;2023-09-07T08:25:45;28.80;99.90
47618;DHT22;33336;36.728;-4.414;2023-09-07T08:30:50;29.00;99.90
47618;DHT22;33336;36.728;-4.414;2023-09-07T08:35:54;29.20;99.90
47618;DHT22;33336;36.728;-4.414;2023-09-07T08:41:00;28.70;99.90
47618;DHT22;33336;36.728;-4.414;2023-09-07T08:46:14;28.50;99.90
47618;DHT22;33336;36.728;-4.414;2023-09-07T08:51:18;28.00;99.90
47618;DHT22;33336;36.728;-4.414;2023-09-07T08:56:21;28.20;99.90
47618;DHT22;33336;36.728;-4.414;2023-09-07T09:01:26;28.00;99.90
47618;DHT22;33336;36.728;-4.414;2023-09-07T09:06:29;28.10;99.90
47618;DHT22;33336;36.728;-4.414;2023-09-07T09:11:32;28.10;99.90
47618;DHT22;33336;36.728;-4.414;2023-09-07T09:16:36;28.10;99.90
47618;DHT22;33336;36.728;-4.414;2023-09-07T09:21:39;28.00;99.90
47618;DHT22;33336;36.728;-4.414;2023-09-07T09:26:42;27.90;99.90
47618;DHT22;33336;36.728;-4.414;2023-09-07T09:31:46;28.10;99.90
47618;DHT22;33336;36.728;-4.414;2023-09-07T09:36:48;28.50;99.90
47618;DHT22;33336;36.728;-4.414;2023-09-07T09:41:52;27.80;99.90
47618;DHT22;33336;36.728;-4.414;2023-09-07T09:46:57;27.80;99.90
47618;DHT22;33336;36.728;-4.414;2023-09-07T09:51:59;28.00;99.90
47618;DHT22;33336;36.728;-4.414;2023-09-07T09:57:02;28.40;99.90
47618;DHT22;33336;36.728;-4.414;2023-09-07T10:02:07;28.70;99.90
47618;DHT22;33336;36.728;-4.414;2023-09-07T10:07:09;28.90;99.90
47618;DHT22;33336;36.728;-4.414;2023-09-07T10:12:13;29.30;99.90
47618;DHT22;33336;36.728;-4.414;2023-09-07T10:17:22;29.00;99.90
47618;DHT22;33336;36.728;-4.414;2023-09-07T10:22:25;28.70;99.90
47618;DHT22;33336;36.728;-4.414;2023-09-07T10:27:36;29.00;99.90
47618;DHT22;33336;36.728;-4.414;2023-09-07T10:32:42;29.50;99.90
47618;DHT22;33336;36.728;-4.414;2023-09-07T10:37:44;29.70;99.90
47618;DHT22;33336;36.728;-4.414;2023-09-07T10:42:48;29.40;99.90
47618;DHT22;33336;36.728;-4.414;2023-09-07T10:47:52;29.20;99.90
47618;DHT22;33336;36.728;-4.414;2023-09-07T10:52:55;29.10;99.90
47618;DHT22;33336;36.728;-4.414;2023-09-07T10:57:58;29.20;99.90
47618;DHT22;33336;36.728;-4.414;2023-09-07T11:03:07;29.90;99.90
47618;DHT22;33336;36.728;-4.414;2023-09-07T11:08:10;29.70;99.90
47618;DHT22;33336;36.728;-4.414;2023-09-07T11:13:13;30.40;99.90
47618;DHT22;33336;36.728;-4.414;2023-09-07T11:18:20;30.40;99.90
47618;DHT22;33336;36.728;-4.414;2023-09-07T11:23:23;29.30;99.90
47618;DHT22;33336;36.728;-4.414;2023-09-07T11:28:26;29.60;99.90
47618;DHT22;33336;36.728;-4.414;2023-09-07T11:33:33;28.90;99.90
47618;DHT22;33336;36.728;-4.414;2023-09-07T11:38:36;29.00;99.90
47618;DHT22;33336;36.728;-4.414;2023-09-07T11:43:39;29.70;99.90
47618;DHT22;33336;36.728;-4.414;2023-09-07T11:48:45;29.20;99.90
47618;DHT22;33336;36.728;-4.414;2023-09-07T11:53:47;29.40;99.90
47618;DHT22;33336;36.728;-4.414;2023-09-07T11:58:50;30.10;99.90
47618;DHT22;33336;36.728;-4.414;2023-09-07T12:03:54;29.80;99.90
47618;DHT22;33336;36.728;-4.414;2023-09-07T12:08:58;29.80;99.90
47618;DHT22;33336;36.728;-4.414;2023-09-07T12:14:00;28.80;99.90
47618;DHT22;33336;36.728;-4.414;2023-09-07T12:19:04;29.60;99.90
47618;DHT22;33336;36.728;-4.414;2023-09-07T12:24:06;29.70;99.90
47618;DHT22;33336;36.728;-4.414;2023-09-07T12:29:09;29.00;99.90
47618;DHT22;33336;36.728;-4.414;2023-09-07T12:34:13;29.60;99.90
47618;DHT22;33336;36.728;-4.414;2023-09-07T12:39:16;29.60;99.90
47618;DHT22;33336;36.728;-4.414;2023-09-07T12:44:18;29.90;99.90
47618;DHT22;33336;36.728;-4.414;2023-09-07T12:49:24;30.40;99.90
47618;DHT22;33336;36.728;-4.414;2023-09-07T12:54:26;29.10;99.90
47618;DHT22;33336;36.728;-4.414;2023-09-07T12:59:29;29.60;99.90
47618;DHT22;33336;36.728;-4.414;2023-09-07T13:04:33;30.00;99.90
47618;DHT22;33336;36.728;-4.414;2023-09-07T13:09:36;30.00;99.90
47618;DHT22;33336;36.728;-4.414;2023-09-07T13:14:39;29.80;99.90
47618;DHT22;33336;36.728;-4.414;2023-09-07T13:19:44;30.20;99.90
47618;DHT22;33336;36.728;-4.414;2023-09-07T13:24:46;30.70;99.90
47618;DHT22;33336;36.728;-4.414;2023-09-07T13:29:49;31.50;99.90
47618;DHT22;33336;36.728;-4.414;2023-09-07T13:34:53;32.10;99.90
47618;DHT22;33336;36.728;-4.414;2023-09-07T13:39:56;31.40;99.90
47618;DHT22;33336;36.728;-4.414;2023-09-07T13:44:58;31.50;99.90
47618;DHT22;33336;36.728;-4.414;2023-09-07T13:50:03;31.50;99.90
47618;DHT22;33336;36.728;-4.414;2023-09-07T13:55:05;31.50;99.90
47618;DHT22;33336;36.728;-4.414;2023-09-07T14:00:08;32.00;99.90
47618;DHT22;33336;36.728;-4.414;2023-09-07T14:05:12;31.60;99.90
47618;DHT22;33336;36.728;-4.414;2023-09-07T14:10:15;31.30;99.90
47618;DHT22;33336;36.728;-4.414;2023-09-07T14:15:18;32.30;99.90
47618;DHT22;33336;36.728;-4.414;2023-09-07T14:20:22;31.50;99.90
47618;DHT22;33336;36.728;-4.414;2023-09-07T14:25:24;31.10;99.90
47618;DHT22;33336;36.728;-4.414;2023-09-07T14:30:27;32.00;99.90
47618;DHT22;33336;36.728;-4.414;2023-09-07T14:35:31;32.40;99.90
47618;DHT22;33336;36.728;-4.414;2023-09-07T14:40:34;33.10;99.90
47618;DHT22;33336;36.728;-4.414;2023-09-07T14:45:36;31.50;99.90
47618;DHT22;33336;36.728;-4.414;2023-09-07T14:50:40;30.70;99.90
47618;DHT22;33336;36.728;-4.414;2023-09-07T14:55:43;32.20;99.90
47618;DHT22;33336;36.728;-4.414;2023-09-07T15:00:46;32.90;99.90
47618;DHT22;33336;36.728;-4.414;2023-09-07T15:05:50;32.10;99.90
47618;DHT22;33336;36.728;-4.414;2023-09-07T15:10:53;33.70;99.90
47618;DHT22;33336;36.728;-4.414;2023-09-07T15:15:55;33.00;99.90
47618;DHT22;33336;36.728;-4.414;2023-09-07T15:21:00;32.20;99.90
47618;DHT22;33336;36.728;-4.414;2023-09-07T15:26:02;33.30;99.30
47618;DHT22;33336;36.728;-4.414;2023-09-07T15:31:05;32.60;99.90
47618;DHT22;33336;36.728;-4.414;2023-09-07T15:36:09;32.70;99.90
47618;DHT22;33336;36.728;-4.414;2023-09-07T15:41:12;33.50;99.80
47618;DHT22;33336;36.728;-4.414;2023-09-07T15:46:14;32.90;99.90
47618;DHT22;33336;36.728;-4.414;2023-09-07T15:51:18;32.00;99.90
47618;DHT22;33336;36.728;-4.414;2023-09-07T15:56:21;32.70;99.90
47618;DHT22;33336;36.728;-4.414;2023-09-07T16:01:24;32.60;99.90
47618;DHT22;33336;36.728;-4.414;2023-09-07T16:06:28;33.40;99.40
47618;DHT22;33336;36.728;-4.414;2023-09-07T16:11:30;33.50;99.90
47618;DHT22;33336;36.728;-4.414;2023-09-07T16:16:33;32.60;99.90
47618;DHT22;33336;36.728;-4.414;2023-09-07T16:21:38;34.50;99.50
47618;DHT22;33336;36.728;-4.414;2023-09-07T16:26:41;35.30;98.20
47618;DHT22;33336;36.728;-4.414;2023-09-07T16:31:47;34.10;97.20
47618;DHT22;33336;36.728;-4.414;2023-09-07T16:36:51;32.10;99.50
47618;DHT22;33336;36.728;-4.414;2023-09-07T16:41:54;33.20;99.40
47618;DHT22;33336;36.728;-4.414;2023-09-07T16:46:57;32.80;99.10
47618;DHT22;33336;36.728;-4.414;2023-09-07T16:52:01;33.00;99.90
47618;DHT22;33336;36.728;-4.414;2023-09-07T16:57:03;33.50;98.50
47618;DHT22;33336;36.728;-4.414;2023-09-07T17:02:06;34.70;96.90
47618;DHT22;33336;36.728;-4.414;2023-09-07T17:07:10;34.30;98.50
47618;DHT22;33336;36.728;-4.414;2023-09-07T17:12:13;34.70;97.20
47618;DHT22;33336;36.728;-4.414;2023-09-07T17:17:15;36.10;95.80
47618;DHT22;33336;36.728;-4.414;2023-09-07T17:22:19;35.70;95.50
47618;DHT22;33336;36.728;-4.414;2023-09-07T17:27:22;37.80;95.70
47618;DHT22;33336;36.728;-4.414;2023-09-07T17:32:24;37.60;93.90
47618;DHT22;33336;36.728;-4.414;2023-09-07T17:37:28;37.60;94.10
47618;DHT22;33336;36.728;-4.414;2023-09-07T17:42:31;37.90;93.10
47618;DHT22;33336;36.728;-4.414;2023-09-07T17:47:34;37.30;94.10
47618;DHT22;33336;36.728;-4.414;2023-09-07T17:52:38;35.80;94.30
47618;DHT22;33336;36.728;-4.414;2023-09-07T17:57:41;36.80;94.70
47618;DHT22;33336;36.728;-4.414;2023-09-07T18:02:43;35.20;94.80
47618;DHT22;33336;36.728;-4.414;2023-09-07T18:07:47;33.50;96.40
47618;DHT22;33336;36.728;-4.414;2023-09-07T18:12:50;33.10;98.00
47618;DHT22;33336;36.728;-4.414;2023-09-07T18:17:53;32.00;98.60
47618;DHT22;33336;36.728;-4.414;2023-09-07T18:22:57;31.60;99.60
47618;DHT22;33336;36.728;-4.414;2023-09-07T18:28:00;31.90;99.00
47618;DHT22;33336;36.728;-4.414;2023-09-07T18:33:03;31.20;99.90
47618;DHT22;33336;36.728;-4.414;2023-09-07T18:38:06;30.10;99.90
47618;DHT22;33336;36.728;-4.414;2023-09-07T18:43:09;29.80;99.90
47618;DHT22;33336;36.728;-4.414;2023-09-07T18:48:12;29.60;99.90
47618;DHT22;33336;36.728;-4.414;2023-09-07T18:53:16;29.10;99.90
47618;DHT22;33336;36.728;-4.414;2023-09-07T18:58:19;28.90;99.90
47618;DHT22;33336;36.728;-4.414;2023-09-07T19:03:22;29.20;99.90
47618;DHT22;33336;36.728;-4.414;2023-09-07T19:08:26;29.60;99.90
47618;DHT22;33336;36.728;-4.414;2023-09-07T19:13:29;30.20;99.90
47618;DHT22;33336;36.728;-4.414;2023-09-07T19:18:32;30.20;99.90
47618;DHT22;33336;36.728;-4.414;2023-09-07T19:23:36;29.60;99.90
47618;DHT22;33336;36.728;-4.414;2023-09-07T19:28:39;29.30;99.90
47618;DHT22;33336;36.728;-4.414;2023-09-07T19:33:41;29.80;99.90
47618;DHT22;33336;36.728;-4.414;2023-09-07T19:38:47;28.90;99.90
47618;DHT22;33336;36.728;-4.414;2023-09-07T19:43:49;29.00;99.90
47618;DHT22;33336;36.728;-4.414;2023-09-07T19:48:52;29.50;99.90
47618;DHT22;33336;36.728;-4.414;2023-09-07T19:53:56;29.00;99.90
47618;DHT22;33336;36.728;-4.414;2023-09-07T19:59:00;28.30;99.90
47618;DHT22;33336;36.728;-4.414;2023-09-07T20:04:06;27.70;99.90
47618;DHT22;33336;36.728;-4.414;2023-09-07T20:09:15;27.90;99.90
47618;DHT22;33336;36.728;-4.414;2023-09-07T20:14:21;27.90;99.90
47618;DHT22;33336;36.728;-4.414;2023-09-07T20:19:24;28.00;99.90
47618;DHT22;33336;36.728;-4.414;2023-09-07T20:24:28;28.30;99.90
47618;DHT22;33336;36.728;-4.414;2023-09-07T20:29:31;28.90;99.90
47618;DHT22;33336;36.728;-4.414;2023-09-07T20:34:33;28.70;99.90
47618;DHT22;33336;36.728;-4.414;2023-09-07T20:39:37;28.30;99.90
47618;DHT22;33336;36.728;-4.414;2023-09-07T20:44:40;28.20;99.90
47618;DHT22;33336;36.728;-4.414;2023-09-07T20:49:43;28.10;99.90
47618;DHT22;33336;36.728;-4.414;2023-09-07T20:54:47;27.90;99.90
47618;DHT22;33336;36.728;-4.414;2023-09-07T20:59:50;27.80;99.90
47618;DHT22;33336;36.728;-4.414;2023-09-07T21:04:54;27.90;99.90
47618;DHT22;33336;36.728;-4.414;2023-09-07T21:09:58;28.10;99.90
47618;DHT22;33336;36.728;-4.414;2023-09-07T21:15:01;27.40;99.90
47618;DHT22;33336;36.728;-4.414;2023-09-07T21:20:05;27.20;99.90
47618;DHT22;33336;36.728;-4.414;2023-09-07T21:25:09;27.10;99.90
47618;DHT22;33336;36.728;-4.414;2023-09-07T21:30:12;27.10;99.90
47618;DHT22;33336;36.728;-4.414;2023-09-07T21:35:15;27.30;99.90
47618;DHT22;33336;36.728;-4.414;2023-09-07T21:40:19;27.40;99.90
47618;DHT22;33336;36.728;-4.414;2023-09-07T21:45:22;27.20;99.90
47618;DHT22;33336;36.728;-4.414;2023-09-07T21:50:26;27.50;99.90
47618;DHT22;33336;36.728;-4.414;2023-09-07T21:55:30;27.60;99.90
47618;DHT22;33336;36.728;-4.414;2023-09-07T22:00:33;27.40;99.90
47618;DHT22;33336;36.728;-4.414;2023-09-07T22:05:35;27.20;99.90
47618;DHT22;33336;36.728;-4.414;2023-09-07T22:10:39;27.60;99.90
47618;DHT22;33336;36.728;-4.414;2023-09-07T22:15:42;28.60;99.90
47618;DHT22;33336;36.728;-4.414;2023-09-07T22:20:45;28.30;99.90
47618;DHT22;33336;36.728;-4.414;2023-09-07T22:25:50;28.90;99.90
47618;DHT22;33336;36.728;-4.414;2023-09-07T22:30:56;28.20;99.90
47618;DHT22;33336;36.728;-4.414;2023-09-07T22:35:58;28.70;99.90
47618;DHT22;33336;36.728;-4.414;2023-09-07T22:41:02;28.20;99.90
47618;DHT22;33336;36.728;-4.414;2023-09-07T22:46:05;28.80;99.90
47618;DHT22;33336;36.728;-4.414;2023-09-07T22:51:08;29.00;99.90
47618;DHT22;33336;36.728;-4.414;2023-09-07T22:56:12;28.80;99.90
47618;DHT22;33336;36.728;-4.414;2023-09-07T23:01:15;29.00;99.90
47618;DHT22;33336;36.728;-4.414;2023-09-07T23:06:18;29.10;99.90
47618;DHT22;33336;36.728;-4.414;2023-09-07T23:11:22;29.20;99.90
47618;DHT22;33336;36.728;-4.414;2023-09-07T23:16:25;29.20;99.90
47618;DHT22;33336;36.728;-4.414;2023-09-07T23:21:29;29.20;99.90
47618;DHT22;33336;36.728;-4.414;2023-09-07T23:26:33;29.20;99.90
47618;DHT22;33336;36.728;-4.414;2023-09-07T23:31:36;29.20;99.90
47618;DHT22;33336;36.728;-4.414;2023-09-07T23:36:38;29.30;99.90
47618;DHT22;33336;36.728;-4.414;2023-09-07T23:41:43;28.60;99.90
47618;DHT22;33336;36.728;-4.414;2023-09-07T23:46:46;28.20;99.90
47618;DHT22;33336;36.728;-4.414;2023-09-07T23:51:49;28.00;99.90
47618;DHT22;33336;36.728;-4.414;2023-09-07T23:56:53;28.60;99.90
